createdAt,value
2018-11-25T00:01:41.242Z,19.07
2018-11-25T00:04:16.413Z,19.17
2018-11-25T00:06:51.456Z,19.13
2018-11-25T00:09:26.523Z,17.80
2018-11-25T00:12:01.466Z,18.20
2018-11-25T00:14:36.139Z,18.83
2018-11-25T00:17:10.423Z,18.13
2018-11-25T00:19:45.133Z,18.17
2018-11-25T00:22:19.834Z,17.50
2018-11-25T00:24:54.425Z,17.57
2018-11-25T00:27:29.122Z,18.10
2018-11-25T00:30:04.151Z,18.43
2018-11-25T00:32:38.926Z,17.30
2018-11-25T00:35:14.747Z,17.20
2018-11-25T00:37:49.006Z,18.47
2018-11-25T00:40:23.323Z,18.87
2018-11-25T00:42:57.948Z,17.77
2018-11-25T00:45:32.746Z,18.33
2018-11-25T00:48:07.065Z,18.77
2018-11-25T00:50:41.769Z,18.50
2018-11-25T00:53:16.282Z,20.50
2018-11-25T00:55:50.674Z,22.10
2018-11-25T00:58:25.245Z,20.10
2018-11-25T01:00:59.719Z,18.77
2018-11-25T01:03:34.683Z,21.27
2018-11-25T01:06:09.219Z,19.37
2018-11-25T01:08:43.786Z,19.97
2018-11-25T01:11:18.534Z,20.40
2018-11-25T01:13:53.082Z,18.50
2018-11-25T01:16:27.536Z,20.17
2018-11-25T01:19:02.428Z,19.67
2018-11-25T01:21:37.137Z,19.77
2018-11-25T01:24:11.826Z,19.23
2018-11-25T01:26:46.602Z,20.37
2018-11-25T01:29:21.381Z,19.50
2018-11-25T01:31:55.841Z,19.37
2018-11-25T01:34:30.241Z,18.47
2018-11-25T01:37:05.241Z,18.67
2018-11-25T01:39:40.196Z,18.17
2018-11-25T01:42:14.477Z,18.43
2018-11-25T01:44:49.254Z,17.70
2018-11-25T01:47:23.728Z,17.30
2018-11-25T01:49:58.602Z,18.17
2018-11-25T01:52:33.025Z,17.70
2018-11-25T01:55:11.235Z,17.40
2018-11-25T01:57:45.973Z,17.93
2018-11-25T02:00:21.514Z,16.70
2018-11-25T02:02:56.319Z,17.13
2018-11-25T02:05:30.982Z,16.73
2018-11-25T02:08:05.786Z,16.73
2018-11-25T02:10:40.265Z,16.73
2018-11-25T02:13:14.595Z,17.17
2018-11-25T02:15:49.146Z,17.13
2018-11-25T02:18:23.621Z,16.57
2018-11-25T02:20:58.808Z,15.90
2018-11-25T02:23:33.142Z,17.10
2018-11-25T02:26:08.062Z,16.90
2018-11-25T02:28:42.746Z,17.40
2018-11-25T02:31:17.067Z,16.97
2018-11-25T02:33:51.947Z,16.53
2018-11-25T02:36:26.421Z,16.63
2018-11-25T02:39:01.243Z,16.73
2018-11-25T02:41:35.977Z,16.43
2018-11-25T02:44:10.861Z,17.13
2018-11-25T02:46:45.854Z,16.33
2018-11-25T02:49:20.609Z,17.10
2018-11-25T02:51:55.187Z,16.90
2018-11-25T02:54:29.650Z,15.73
2018-11-25T02:57:04.301Z,16.60
2018-11-25T02:59:38.683Z,16.27
2018-11-25T03:02:13.542Z,15.57
2018-11-25T03:04:48.301Z,16.30
2018-11-25T03:07:23.316Z,16.80
2018-11-25T03:09:58.017Z,16.77
2018-11-25T03:12:32.774Z,16.87
2018-11-25T03:15:10.534Z,18.20
2018-11-25T03:17:44.863Z,17.10
2018-11-25T03:20:19.386Z,17.17
2018-11-25T03:22:54.138Z,17.60
2018-11-25T03:25:29.454Z,16.77
2018-11-25T03:28:04.607Z,17.37
2018-11-25T03:30:39.274Z,17.80
2018-11-25T03:33:14.046Z,17.77
2018-11-25T03:35:49.683Z,16.97
2018-11-25T03:38:23.989Z,18.23
2018-11-25T03:40:58.749Z,17.30
2018-11-25T03:43:33.461Z,18.23
2018-11-25T03:46:08.390Z,17.80
2018-11-25T03:48:42.760Z,16.87
2018-11-25T03:51:17.262Z,16.40
2018-11-25T03:53:51.726Z,15.53
2018-11-25T03:56:26.702Z,15.10
2018-11-25T03:59:01.042Z,14.37
2018-11-25T04:01:35.885Z,13.87
2018-11-25T04:04:10.724Z,13.60
2018-11-25T04:06:45.399Z,13.17
2018-11-25T04:09:20.043Z,13.57
2018-11-25T04:11:54.434Z,13.63
2018-11-25T04:14:29.486Z,13.57
2018-11-25T04:17:04.017Z,14.03
2018-11-25T04:19:38.549Z,13.80
2018-11-25T04:22:13.247Z,13.60
2018-11-25T04:24:48.193Z,13.93
2018-11-25T04:27:22.944Z,15.23
2018-11-25T04:29:57.497Z,15.63
2018-11-25T04:32:32.022Z,15.77
2018-11-25T04:35:08.546Z,16.40
2018-11-25T04:37:43.093Z,16.40
2018-11-25T04:40:18.238Z,15.67
2018-11-25T04:42:52.601Z,17.10
2018-11-25T04:45:26.873Z,16.40
2018-11-25T04:48:01.231Z,16.80
2018-11-25T04:50:35.741Z,16.73
2018-11-25T04:53:10.231Z,16.87
2018-11-25T04:55:45.561Z,17.13
2018-11-25T04:58:20.070Z,17.70
2018-11-25T05:00:54.717Z,18.97
2018-11-25T05:03:29.462Z,19.17
2018-11-25T05:06:04.213Z,19.60
2018-11-25T05:08:38.605Z,20.03
2018-11-25T05:11:13.242Z,19.90
2018-11-25T05:13:47.737Z,20.00
2018-11-25T05:16:22.258Z,20.03
2018-11-25T05:18:56.996Z,19.77
2018-11-25T05:21:31.965Z,20.00
2018-11-25T05:24:06.541Z,19.90
2018-11-25T05:26:41.238Z,19.20
2018-11-25T05:29:15.604Z,19.17
2018-11-25T05:31:50.225Z,19.20
2018-11-25T05:34:25.089Z,19.37
2018-11-25T05:36:59.853Z,19.63
2018-11-25T05:39:34.390Z,19.70
2018-11-25T05:42:08.885Z,19.07
2018-11-25T05:44:43.233Z,19.50
2018-11-25T05:47:18.113Z,18.87
2018-11-25T05:49:52.805Z,19.47
2018-11-25T05:52:27.252Z,19.20
2018-11-25T05:55:01.670Z,19.70
2018-11-25T05:57:37.228Z,19.40
2018-11-25T06:00:15.741Z,20.07
2018-11-25T06:02:50.561Z,19.33
2018-11-25T06:05:25.645Z,19.57
2018-11-25T06:08:00.127Z,18.10
2018-11-25T06:10:34.761Z,19.37
2018-11-25T06:13:09.285Z,20.30
2018-11-25T06:15:43.581Z,19.37
2018-11-25T06:18:17.978Z,18.80
2018-11-25T06:20:52.927Z,19.37
2018-11-25T06:23:27.342Z,19.73
2018-11-25T06:26:02.359Z,19.07
2018-11-25T06:28:37.544Z,20.20
2018-11-25T06:31:12.466Z,19.03
2018-11-25T06:33:46.885Z,19.60
2018-11-25T06:36:21.315Z,20.03
2018-11-25T06:38:55.955Z,19.90
2018-11-25T06:41:34.078Z,20.83
2018-11-25T06:44:05.186Z,21.53
2018-11-25T06:46:39.500Z,20.90
2018-11-25T06:49:14.551Z,21.37
2018-11-25T06:51:49.218Z,20.47
2018-11-25T06:54:23.799Z,20.03
2018-11-25T06:56:58.746Z,19.30
2018-11-25T06:59:33.057Z,19.73
2018-11-25T07:02:08.342Z,20.83
2018-11-25T07:04:42.828Z,19.83
2018-11-25T07:07:17.279Z,20.20
2018-11-25T07:09:51.833Z,20.33
2018-11-25T07:12:26.321Z,18.87
2018-11-25T07:15:00.982Z,19.33
2018-11-25T07:17:36.215Z,19.90
2018-11-25T07:20:12.065Z,19.57
2018-11-25T07:22:47.012Z,19.73
2018-11-25T07:25:23.057Z,20.13
2018-11-25T07:27:57.353Z,19.27
2018-11-25T07:30:32.417Z,18.13
2018-11-25T07:33:06.846Z,20.50
2018-11-25T07:35:41.937Z,18.60
2018-11-25T07:38:16.609Z,18.60
2018-11-25T07:40:51.461Z,18.30
2018-11-25T07:43:25.885Z,19.13
2018-11-25T07:46:00.359Z,17.83
2018-11-25T07:48:34.969Z,18.60
2018-11-25T07:51:09.698Z,17.63
2018-11-25T07:53:44.522Z,17.70
2018-11-25T07:56:19.045Z,17.17
2018-11-25T07:58:53.703Z,18.63
2018-11-25T08:01:29.125Z,18.70
2018-11-25T08:04:03.607Z,17.97
2018-11-25T08:06:38.329Z,17.13
2018-11-25T08:09:12.892Z,18.40
2018-11-25T08:11:47.579Z,17.37
2018-11-25T08:14:22.277Z,17.43
2018-11-25T08:16:56.789Z,18.63
2018-11-25T08:19:31.792Z,18.17
2018-11-25T08:22:06.402Z,18.43
2018-11-25T08:24:41.008Z,17.20
2018-11-25T08:27:15.356Z,16.27
2018-11-25T08:29:50.127Z,16.97
2018-11-25T08:32:25.699Z,18.50
2018-11-25T08:35:00.091Z,16.83
2018-11-25T08:37:34.541Z,18.73
2018-11-25T08:40:14.580Z,15.60
2018-11-25T08:42:49.910Z,16.97
2018-11-25T08:45:24.242Z,15.43
2018-11-25T08:47:58.742Z,16.27
2018-11-25T08:50:33.105Z,16.30
2018-11-25T08:53:07.995Z,16.27
2018-11-25T08:55:42.457Z,17.27
2018-11-25T08:58:19.115Z,15.80
2018-11-25T09:00:53.534Z,15.60
2018-11-25T09:03:28.031Z,14.57
2018-11-25T09:06:02.360Z,16.00
2018-11-25T09:08:38.061Z,15.43
2018-11-25T09:11:12.478Z,16.80
2018-11-25T09:13:52.013Z,16.23
2018-11-25T09:16:26.669Z,15.17
2018-11-25T09:19:01.655Z,17.23
2018-11-25T09:21:36.656Z,16.70
2018-11-25T09:24:11.541Z,17.37
2018-11-25T09:26:46.786Z,16.50
2018-11-25T09:29:21.328Z,16.77
2018-11-25T09:31:56.718Z,17.43
2018-11-25T09:34:31.097Z,16.33
2018-11-25T09:37:06.026Z,15.93
2018-11-25T09:39:40.638Z,14.60
2018-11-25T09:42:15.390Z,14.40
2018-11-25T09:44:50.251Z,14.97
2018-11-25T09:47:24.606Z,15.47
2018-11-25T09:49:59.146Z,15.93
2018-11-25T09:52:33.843Z,15.67
2018-11-25T09:55:10.520Z,15.87
2018-11-25T09:57:48.489Z,14.67
2018-11-25T10:00:25.277Z,15.90
2018-11-25T10:02:59.807Z,15.63
2018-11-25T10:05:35.399Z,15.33
2018-11-25T10:08:11.148Z,14.77
2018-11-25T10:10:52.471Z,16.90
2018-11-25T10:13:20.885Z,15.63
2018-11-25T10:15:55.167Z,15.07
2018-11-25T10:18:29.736Z,16.33
2018-11-25T10:21:04.231Z,14.70
2018-11-25T10:23:40.487Z,15.50
2018-11-25T10:26:15.392Z,14.93
2018-11-25T10:28:50.096Z,15.27
2018-11-25T10:31:24.902Z,15.40
2018-11-25T10:33:59.741Z,14.83
2018-11-25T10:36:34.674Z,14.50
2018-11-25T10:39:11.161Z,14.90
2018-11-25T10:41:45.714Z,14.53
2018-11-25T10:44:20.064Z,14.70
2018-11-25T10:47:21.380Z,15.23
2018-11-25T10:49:55.946Z,14.43
2018-11-25T10:55:29.485Z,15.00
2018-11-25T10:58:04.469Z,15.23
2018-11-25T11:00:44.557Z,15.27
2018-11-25T11:03:24.349Z,15.70
2018-11-25T11:06:05.198Z,17.37
2018-11-25T11:08:40.181Z,17.47
2018-11-25T11:11:15.182Z,18.03
2018-11-25T11:13:50.137Z,18.03
2018-11-25T11:16:25.507Z,18.20
2018-11-25T11:19:02.997Z,18.07
2018-11-25T11:21:37.974Z,18.53
2018-11-25T11:24:12.490Z,18.47
2018-11-25T11:26:47.195Z,19.23
2018-11-25T11:29:22.430Z,18.83
2018-11-25T11:31:57.202Z,20.63
2018-11-25T11:34:31.870Z,21.43
2018-11-25T11:37:06.977Z,22.30
2018-11-25T11:39:41.518Z,23.37
2018-11-25T11:42:16.549Z,23.37
2018-11-25T11:44:51.151Z,24.23
2018-11-25T11:47:26.081Z,24.27
2018-11-25T11:50:00.346Z,24.73
2018-11-25T11:52:38.049Z,25.63
2018-11-25T11:55:14.551Z,25.10
2018-11-25T11:57:48.942Z,26.67
2018-11-25T12:00:28.185Z,26.97
2018-11-25T12:03:02.573Z,27.20
2018-11-25T12:05:37.256Z,27.07
2018-11-25T12:08:13.001Z,26.97
2018-11-25T12:10:47.841Z,28.33
2018-11-25T12:13:22.329Z,28.03
2018-11-25T12:15:56.986Z,26.03
2018-11-25T12:18:31.501Z,27.43
2018-11-25T12:21:06.349Z,27.30
2018-11-25T12:23:41.229Z,27.80
2018-11-25T12:26:18.086Z,28.23
2018-11-25T12:28:52.369Z,28.57
2018-11-25T12:31:26.868Z,29.20
2018-11-25T12:34:01.399Z,29.97
2018-11-25T12:36:35.928Z,28.97
2018-11-25T12:39:11.023Z,27.93
2018-11-25T12:41:46.090Z,28.63
2018-11-25T12:44:20.510Z,27.93
2018-11-25T12:46:55.128Z,29.57
2018-11-25T12:49:29.750Z,28.47
2018-11-25T12:52:04.321Z,25.90
2018-11-25T12:54:38.728Z,26.07
2018-11-25T12:57:13.364Z,25.17
2018-11-25T12:59:48.349Z,25.87
2018-11-25T13:02:23.797Z,25.93
2018-11-25T13:04:59.878Z,25.93
2018-11-25T13:07:35.120Z,25.53
2018-11-25T13:10:10.948Z,24.63
2018-11-25T13:12:46.105Z,25.47
2018-11-25T13:15:20.814Z,22.87
2018-11-25T13:17:55.812Z,23.47
2018-11-25T13:20:30.378Z,22.47
2018-11-25T13:23:05.341Z,22.00
2018-11-25T13:25:39.889Z,22.27
2018-11-25T13:28:14.762Z,24.80
2018-11-25T13:30:49.225Z,24.37
2018-11-25T13:33:24.025Z,24.33
2018-11-25T13:35:58.706Z,24.30
2018-11-25T13:38:33.278Z,25.23
2018-11-25T13:41:07.666Z,25.07
2018-11-25T13:43:42.076Z,24.90
2018-11-25T13:46:16.394Z,24.50
2018-11-25T13:48:50.906Z,23.57
2018-11-25T13:51:25.760Z,25.77
2018-11-25T13:54:04.655Z,23.83
2018-11-25T13:56:38.522Z,26.80
2018-11-25T13:59:13.574Z,26.67
2018-11-25T14:01:47.966Z,26.07
2018-11-25T14:04:22.350Z,27.33
2018-11-25T14:07:03.240Z,26.27
2018-11-25T14:09:38.079Z,26.23
2018-11-25T14:12:12.493Z,27.13
2018-11-25T14:14:46.881Z,27.03
2018-11-25T14:17:21.277Z,27.97
2018-11-25T14:19:55.881Z,26.80
2018-11-25T14:22:30.219Z,28.50
2018-11-25T14:25:11.744Z,27.20
2018-11-25T14:27:48.027Z,27.07
2018-11-25T14:30:27.398Z,26.97
2018-11-25T14:33:02.547Z,25.63
2018-11-25T14:35:37.343Z,25.30
2018-11-25T14:38:11.843Z,24.83
2018-11-25T14:40:46.661Z,22.83
2018-11-25T14:43:21.729Z,20.97
2018-11-25T14:45:56.656Z,22.63
2018-11-25T14:48:31.497Z,20.80
2018-11-25T14:51:06.521Z,23.03
2018-11-25T14:53:41.247Z,24.00
2018-11-25T14:56:16.357Z,24.13
2018-11-25T14:58:51.879Z,23.83
2018-11-25T15:01:27.200Z,22.87
2018-11-25T15:04:02.592Z,23.57
2018-11-25T15:06:37.031Z,23.57
2018-11-25T15:09:11.599Z,23.63
2018-11-25T15:11:45.935Z,21.63
2018-11-25T15:14:20.554Z,22.03
2018-11-25T15:16:55.129Z,22.20
2018-11-25T15:19:29.570Z,23.50
2018-11-25T15:22:04.227Z,22.37
2018-11-25T15:24:38.760Z,22.57
2018-11-25T15:27:13.354Z,24.07
2018-11-25T15:29:47.980Z,22.87
2018-11-25T15:32:22.484Z,24.30
2018-11-25T15:34:57.290Z,22.93
2018-11-25T15:37:32.156Z,24.40
2018-11-25T15:40:31.749Z,26.63
2018-11-25T15:43:07.906Z,28.20
2018-11-25T15:45:42.950Z,29.37
2018-11-25T15:48:22.165Z,30.70
2018-11-25T15:50:56.533Z,30.20
2018-11-25T15:53:31.002Z,30.37
2018-11-25T15:56:09.120Z,32.10
2018-11-25T15:58:43.821Z,32.13
2018-11-25T16:01:18.691Z,32.23
2018-11-25T16:03:53.160Z,29.87
2018-11-25T16:06:29.773Z,26.13
2018-11-25T16:09:05.308Z,25.13
2018-11-25T16:11:40.066Z,23.63
2018-11-25T16:14:15.187Z,23.00
2018-11-25T16:16:50.194Z,22.97
2018-11-25T16:19:24.836Z,23.17
2018-11-25T16:21:59.741Z,23.20
2018-11-25T16:24:34.281Z,23.50
2018-11-25T16:27:08.994Z,24.20
2018-11-25T16:29:43.737Z,24.23
2018-11-25T16:32:18.010Z,25.47
2018-11-25T16:34:52.491Z,25.50
2018-11-25T16:37:27.173Z,25.90
2018-11-25T16:40:02.057Z,26.67
2018-11-25T16:42:36.813Z,25.40
2018-11-25T16:45:13.241Z,24.93
2018-11-25T16:47:47.549Z,24.33
2018-11-25T16:50:25.327Z,25.13
2018-11-25T16:52:56.693Z,26.83
2018-11-25T16:55:31.317Z,27.20
2018-11-25T16:58:06.920Z,27.13
2018-11-25T17:00:41.932Z,27.83
2018-11-25T17:03:16.441Z,28.57
2018-11-25T17:05:52.968Z,28.33
2018-11-25T17:08:34.739Z,27.63
2018-11-25T17:11:09.517Z,28.27
2018-11-25T17:13:44.085Z,27.07
2018-11-25T17:16:18.963Z,26.03
2018-11-25T17:18:53.296Z,27.10
2018-11-25T17:21:28.125Z,25.03
2018-11-25T17:24:02.849Z,24.67
2018-11-25T17:26:38.720Z,24.20
2018-11-25T17:29:13.372Z,25.83
2018-11-25T17:31:48.116Z,25.77
2018-11-25T17:34:22.845Z,25.63
2018-11-25T17:36:58.001Z,26.57
2018-11-25T17:39:32.715Z,25.97
2018-11-25T17:42:07.950Z,24.53
2018-11-25T17:44:43.006Z,24.17
2018-11-25T17:47:17.345Z,23.97
2018-11-25T17:49:52.438Z,24.23
2018-11-25T17:52:27.322Z,22.87
2018-11-25T17:55:02.071Z,23.47
2018-11-25T17:57:37.434Z,22.50
2018-11-25T18:00:19.054Z,23.07
2018-11-25T18:02:53.609Z,23.53
2018-11-25T18:05:28.579Z,23.17
2018-11-25T18:08:02.966Z,21.90
2018-11-25T18:10:37.568Z,22.07
2018-11-25T18:13:12.186Z,21.23
2018-11-25T18:15:47.391Z,21.37
2018-11-25T18:18:33.290Z,21.53
2018-11-25T18:21:09.994Z,21.20
2018-11-25T18:23:44.562Z,21.53
2018-11-25T18:26:20.158Z,22.47
2018-11-25T18:28:54.520Z,23.27
2018-11-25T18:31:28.829Z,22.27
2018-11-25T18:34:03.535Z,22.70
2018-11-25T18:36:38.274Z,22.87
2018-11-25T18:39:13.333Z,20.90
2018-11-25T18:41:47.903Z,22.77
2018-11-25T18:44:22.733Z,21.47
2018-11-25T18:46:57.910Z,22.67
2018-11-25T18:49:33.051Z,21.43
2018-11-25T18:52:07.901Z,21.77
2018-11-25T18:54:46.389Z,21.43
2018-11-25T18:57:21.481Z,21.43
2018-11-25T18:59:56.114Z,21.03
2018-11-25T19:02:40.976Z,21.70
2018-11-25T19:05:15.949Z,21.03
2018-11-25T19:07:50.329Z,22.10
2018-11-25T19:10:25.382Z,22.43
2018-11-25T19:13:00.305Z,19.90
2018-11-25T19:15:35.449Z,21.73
2018-11-25T19:18:10.371Z,20.63
2018-11-25T19:20:45.261Z,20.63
2018-11-25T19:23:19.990Z,19.43
2018-11-25T19:25:54.849Z,19.93
2018-11-25T19:28:29.810Z,19.37
2018-11-25T19:31:04.467Z,19.83
2018-11-25T19:33:38.902Z,20.60
2018-11-25T19:36:14.985Z,23.57
2018-11-25T19:38:49.905Z,64.33
2018-11-25T19:41:24.311Z,30.90
2018-11-25T19:43:58.741Z,21.50
2018-11-25T19:46:33.698Z,24.07
2018-11-25T19:49:08.670Z,20.70
2018-11-25T19:51:43.279Z,20.53
2018-11-25T19:54:18.437Z,20.67
2018-11-25T19:56:53.065Z,20.77
2018-11-25T19:59:27.512Z,21.10
2018-11-25T20:02:02.158Z,20.37
2018-11-25T20:04:37.411Z,21.03
2018-11-25T20:07:12.575Z,20.70
2018-11-25T20:09:47.326Z,21.80
2018-11-25T20:12:25.833Z,22.33
2018-11-25T20:15:01.059Z,20.63
2018-11-25T20:17:36.553Z,21.07
2018-11-25T20:20:16.837Z,22.80
2018-11-25T20:22:52.673Z,23.50
2018-11-25T20:25:27.918Z,23.53
2018-11-25T20:28:02.288Z,22.77
2018-11-25T20:30:36.613Z,23.67
2018-11-25T20:33:20.405Z,23.20
2018-11-25T20:35:54.921Z,22.67
2018-11-25T20:38:35.189Z,22.93
2018-11-25T20:41:10.677Z,25.20
2018-11-25T20:43:45.270Z,25.57
2018-11-25T20:46:25.753Z,24.13
2018-11-25T20:49:00.870Z,25.03
2018-11-25T20:53:45.106Z,23.60
2018-11-25T20:56:19.805Z,23.50
2018-11-25T20:58:54.965Z,24.03
2018-11-25T21:01:29.537Z,24.87
2018-11-25T21:04:04.624Z,23.60
2018-11-25T21:06:39.638Z,25.33
2018-11-25T21:09:14.830Z,25.23
2018-11-25T21:11:50.174Z,24.73
2018-11-25T21:14:25.226Z,24.70
2018-11-25T21:16:59.645Z,24.40
2018-11-25T21:19:33.946Z,25.57
2018-11-25T21:22:08.305Z,24.50
2018-11-25T21:24:42.761Z,24.87
2018-11-25T21:27:19.574Z,23.90
2018-11-25T21:29:58.203Z,24.77
2018-11-25T21:32:33.091Z,24.50
2018-11-25T21:35:09.187Z,24.30
2018-11-25T21:37:44.198Z,23.37
2018-11-25T21:40:21.990Z,25.03
2018-11-25T21:42:57.630Z,24.93
2018-11-25T21:45:32.382Z,23.77
2018-11-25T21:48:08.314Z,23.77
2018-11-25T21:50:43.465Z,24.87
2018-11-25T21:53:18.158Z,24.23
2018-11-25T21:55:52.736Z,23.87
2018-11-25T21:58:28.838Z,23.27
2018-11-25T22:01:02.433Z,22.37
2018-11-25T22:03:37.042Z,22.00
2018-11-25T22:06:11.553Z,23.30
2018-11-25T22:08:46.413Z,21.77
2018-11-25T22:11:30.228Z,21.33
2018-11-25T22:14:05.291Z,22.40
2018-11-25T22:16:40.134Z,22.13
2018-11-25T22:19:14.590Z,20.60
2018-11-25T22:21:48.865Z,21.40
2018-11-25T22:24:23.849Z,21.03
2018-11-25T22:26:59.566Z,21.80
2018-11-25T22:29:33.845Z,22.27
2018-11-25T22:32:08.476Z,21.17
2018-11-25T22:34:42.998Z,21.83
2018-11-25T22:37:17.589Z,22.50
2018-11-25T22:39:52.678Z,21.73
2018-11-25T22:42:26.969Z,22.57
2018-11-25T22:45:01.499Z,22.80
2018-11-25T22:47:36.737Z,23.50
2018-11-25T22:50:17.501Z,23.07
2018-11-25T22:52:52.006Z,22.77
2018-11-25T22:55:27.510Z,23.93
2018-11-25T22:58:01.875Z,22.27
2018-11-25T23:00:38.098Z,24.00
2018-11-25T23:03:12.797Z,23.83
2018-11-25T23:05:58.859Z,21.97
2018-11-25T23:08:34.385Z,22.80
2018-11-25T23:11:09.076Z,24.20
2018-11-25T23:13:43.976Z,24.67
2018-11-25T23:16:18.746Z,24.20
2018-11-25T23:18:53.453Z,25.33
2018-11-25T23:21:27.735Z,25.53
2018-11-25T23:24:02.199Z,25.37
2018-11-25T23:26:36.717Z,24.17
2018-11-25T23:29:11.457Z,25.27
2018-11-25T23:31:46.417Z,26.40
2018-11-25T23:34:21.374Z,24.67
2018-11-25T23:36:56.014Z,25.13
2018-11-25T23:39:30.809Z,26.03
2018-11-25T23:42:05.727Z,24.13
2018-11-25T23:44:40.136Z,23.47
2018-11-25T23:47:15.648Z,21.80
2018-11-25T23:49:50.254Z,22.30
2018-11-25T23:52:24.673Z,23.03
2018-11-25T23:54:59.693Z,24.27
2018-11-25T23:57:34.941Z,23.23
